Du har inga inställningar för hoppväder.nu

Hoppväder.nu

Senast uppdaterat 06:47

UTC-tid

2020-01-29 kl. 05:47


Sol och måne

Solen går upp 8:06 och går ner 16:05 (beräknade cirkatider)
Nästa fullmåne blir om 11 dagar (2020-02-09)

METAR

ESKN (Skavsta)
(27 minuter sedan)
ESKN 290520Z 17005KT 9999 BKN007 03/03 Q0987 RWY 26 WET OR WATER PATCHES 51-100 PCT 2 MM BA GOOD=



ESSB (Bromma)
(27 minuter sedan)
ESSB 290520Z 12006KT 9999 BKN007 03/02 Q0988 RWY 12 WET OR WATER PATCHES 51-100 PCT FCT 0.69=



ESOE (Örebro)
(27 minuter sedan)
ESOE 290520Z 09002KT 3000 BR BKN007 03/02 Q0986=



ESSL (Linköping)
(27 minuter sedan)
ESSL 290520Z 19005KT 150V230 9999 BKN028 03/03 Q0987=



ESSP (Norrköping)
(27 minuter sedan)
ESSP 290520Z AUTO VRB02KT 9999 FEW006/// OVC032/// 03/02 Q0987=



TAF

ESKN (Skavsta)
(180 minuter sedan)
ESKN AMD 290247Z 2902/2924 13009KT 9999 -RA SCT005 BKN014 BECMG 2902/2904 2000 BR SCT003 BKN015 TEMPO 2904/2911 0200 FG VV002 TEMPO 2911/2924 5000 RA BKN003=



ESSB (Bromma)
(17 minuter sedan)
ESSB 290530Z 2906/2915 14009KT 9999 -DZ BKN007 TEMPO 2906/2908 2000 DZ BR BKN004 BECMG 2908/2909 SCT007 BKN015 TEMPO 2909/2915 3000 RA BKN008=



ESOE (Örebro)
(17 minuter sedan)
ESOE 290530Z 2906/2915 09005KT 5000 OVC005 TEMPO 2906/2908 1000 BR SCT006 BKN015 BECMG 2908/2910 BKN010 BECMG 2912/2914 BKN015=



ESSL (Linköping)
(17 minuter sedan)
ESSL 290530Z 2906/2915 19005KT 9999 FEW010 BKN025 PROB40 2906/2910 4000 BR BKN005=



ESSP (Norrköping)
(17 minuter sedan)
ESSP 290530Z 2906/2915 VRB03KT 9999 BKN006 TEMPO 2906/2912 2000 BR BKN004 TEMPO 2912/2915 2000 RA BKN004=





Kodnycklar till TAF och METAR






LHP

(Nyköping är område G1b i Södra delen)







Spotting

Hur fungerar spotthjälpen och Vindkartan?

Markvind är ca 0 m/s.
Vind på 600 m ca 0 m/s.
Vind på 1500 m ca 0 m/s.
Vind på 3000 m ca 0 m/s.
YL-KAM flyger ca 41 m/s över marken på finalen.
Du driver ca 0 m bakåt i frifall. (0 m)
Lämplig spot är 7 sekunder eller 288 m innan gropen.
(-7s eller -288 m)
För små grupper eller ensamhoppare bör man vänta 4-5 sekunder mellan grupperna.
För större grupper bör man vänta 7-9 sekunder mellan grupperna.


Vindkartan

Senast uppdaterad 06:47




All data kommer från LFV.se